Flight Track Log - Related Links

Times and Time Zones

All times are in EDT time to prevent confusion due to time zone crossing. See the EGF3924 flight status page for this flight to view local times or setup timezone preferences in your user account.

Time Position Orientation Groundspeed Altitude Reporting Facility
EDT Latitude Longitude Course Direction KTS MPH feet Rate Location/Type
Sat 09:19:15 PM 41.9567 -87.9000 68° East  Level FlightAware Approximate
Sat 09:19:57 PM 41.9667 -87.8667 180° South 179 206 2,200  Level Chicago TRACON
Sat 09:20:57 PM 41.9167 -87.8667 181° South 202 232 4,900 1,857 Climbing Chicago TRACON
Sat 09:23:27 PM 41.7364 -87.8722 181° South 263 303 8,700 1,600 Climbing Chicago Center
Sat 09:24:27 PM 41.6489 -87.8744 181° South 291 335 10,500 2,000 Climbing Chicago Center
Sat 09:25:27 PM 41.5594 -87.8764 167° South 313 360 12,700 1,950 Climbing Chicago Center
Sat 09:26:27 PM 41.4672 -87.8481 166° South 330 380 14,400 1,400 Climbing Chicago Center
Sat 09:27:27 PM 41.3708 -87.8169 166° South 341 392 15,500 1,050 Climbing Chicago Center
Sat 09:28:27 PM 41.2683 -87.7836 168° South 365 420 16,500 950 Climbing Chicago Center
Sat 09:29:27 PM 41.1617 -87.7531 166° South 384 442 17,400 850 Climbing Chicago Center
Sat 09:30:27 PM 41.0506 -87.7172 167° South 399 459 18,200 1,050 Climbing Chicago Center
Sat 09:31:27 PM 40.9375 -87.6814 167° South 410 472 19,500 1,400 Climbing Chicago Center
Sat 09:32:27 PM 40.8264 -87.6486 167° South 415 478 21,000 1,500 Climbing Chicago Center
Sat 09:33:27 PM 40.7133 -87.6133 168° South 415 478 22,500 1,466 Climbing Chicago Center
Sat 09:35:23 PM 40.4964 -87.5503 168° South 403 464 25,300 1,440 Climbing Indianapolis Center
Sat 09:36:22 PM 40.3869 -87.5194 168° South 403 464 26,700 1,450 Climbing Indianapolis Center
Sat 09:37:23 PM 40.2775 -87.4889 166° South 403 464 28,200 1,488 Climbing Indianapolis Center
Sat 09:38:23 PM 40.1661 -87.4528 167° South 403 464 29,700 1,500 Climbing Indianapolis Center
Sat 09:39:23 PM 40.0608 -87.4222 153° Southeast 390 449 31,200 1,450 Climbing Indianapolis Center
Sat 09:40:23 PM 39.9669 -87.3603 145° Southeast 378 435 32,600 900 Climbing Indianapolis Center
Sat 09:41:23 PM 39.8717 -87.2739 144° Southeast 399 459 33,000 202 Climbing Indianapolis Center
Sat 09:42:22 PM 39.7744 -87.1822 145° Southeast 421 484 33,000  Level Indianapolis Center
Sat 09:43:23 PM 39.6708 -87.0881 145° Southeast 449 517 33,000  Level Indianapolis Center
Sat 09:44:23 PM 39.5653 -86.9939 146° Southeast 456 525 33,000  Level Indianapolis Center
Sat 09:45:23 PM 39.4594 -86.9000 145° Southeast 461 531 33,000  Level Indianapolis Center
Sat 09:46:23 PM 39.3558 -86.8064 145° Southeast 461 531 33,000  Level Indianapolis Center
Sat 09:47:23 PM 39.2542 -86.7133 152° Southeast 461 531 33,000  Level Indianapolis Center
Sat 09:48:23 PM 39.1456 -86.6389 184° South 444 511 33,000 -50 Level Indianapolis Center
Sat 09:49:23 PM 39.0472 -86.6481 187° South 400 460 32,900  Descending Indianapolis Center
Sat 09:51:23 PM 38.8169 -86.6861 171° South 400 460 33,000 33 Climbing Indianapolis Center
Sat 09:52:23 PM 38.7069 -86.6628 164° South 406 467 33,000  Level Indianapolis Center
Sat 09:53:23 PM 38.5953 -86.6208 178° South 406 467 33,000  Level Indianapolis Center
Sat 09:54:23 PM 38.4808 -86.6158 191° South 411 473 33,000  Level Indianapolis Center
Sat 09:55:23 PM 38.3717 -86.6431 192° South 405 466 33,000  Level Indianapolis Center
Sat 09:56:23 PM 38.2603 -86.6728 192° South 410 472 33,000  Level Indianapolis Center
Sat 09:57:22 PM 38.1469 -86.7025 191° South 410 472 33,000 -600 Level Indianapolis Center
Sat 09:58:23 PM 38.0439 -86.7269 190° South 417 480 31,800 -1,438 Descending Indianapolis Center
Sat 09:59:23 PM 37.9369 -86.7514 192° South 411 473 30,100 -1,875 Descending Indianapolis Center
Sat 10:01:19 PM 37.7228 -86.8103 191° South 390 449 26,300 -1,977 Descending Memphis Center
Sat 10:02:19 PM 37.6069 -86.8389 191° South 413 475 24,300 -1,950 Descending Memphis Center
Sat 10:03:19 PM 37.4911 -86.8678 190° South 425 489 22,400 -1,950 Descending Memphis Center
Sat 10:04:19 PM 37.3772 -86.8936 191° South 425 489 20,400 -1,200 Descending Memphis Center
Sat 10:05:19 PM 37.2675 -86.9192 183° South 416 479 20,000 -200 Descending Memphis Center
Sat 10:06:19 PM 37.1447 -86.9272 169° South 410 472 20,000 -850 Level Memphis Center
Sat 10:07:19 PM 37.0253 -86.8986 168° South 418 481 18,300 -1,800 Descending Memphis Center
Sat 10:08:19 PM 36.9161 -86.8694 169° South 418 481 16,400 -2,000 Descending Memphis Center
Sat 10:09:19 PM 36.8092 -86.8431 170° South 403 464 14,300 -2,050 Descending Memphis Center
Sat 10:10:19 PM 36.7022 -86.8192 167° South 389 448 12,300 -1,650 Descending Memphis Center
Sat 10:11:19 PM 36.6033 -86.7900 165° South 389 448 11,000 -1,250 Descending Memphis Center
Sat 10:12:19 PM 36.5233 -86.7625 164° South 333 383 9,800 -1,550 Descending Memphis Center
Sat 10:13:19 PM 36.4475 -86.7350 164° South 291 335 7,900 -1,700 Descending Memphis Center
Sat 10:14:19 PM 36.3822 -86.7119 164° South 279 321 6,400 -1,650 Descending Memphis Center
Sat 10:15:19 PM 36.3106 -86.6869 166° South 274 315 4,600 -1,850 Descending Memphis Center
Sat 10:16:19 PM 36.2453 -86.6667 171° South 253 291 2,700 -1,450 Descending Memphis Center
Sat 10:17:19 PM 36.1931 -86.6564 171° South 205 236 1,700 -1,000 Descending Memphis Center

Login

Don't have an account? Register now (free) for customized features, flight alerts, and more!